Gemsa, Egypt
Current Conditions -  °F | °C
As of 8:00 PM on Friday 24 Oct 2014 (Local Time) from HEGN Reporting Station
Clear Clear  
Wind Chill: 77°   Ceiling: Unl
Heat Index: 78°   Visibility: 6mi
Dew Point: 45°   Wind: 6mph
Humidity: 32%   Direction: 310°NW
Pressure: 29.94"   Gusts: NA
Location:  27.63°N, 33.58°E
Report Text: HEGN 241800Z 31005KT CAVOK 25/07 Q1014 NOSIG
Loading
Personal Weather Stations






























Interactive Weather Map
Tropical Storm Tracking
New forecast layout! Learn more

10-Day Weather Forecast

Advertisements
Track Severe Weather on mobile